Time;durP1;ratioP1;P1;durP2;ratioP2;P2;SDS_P1;SDS_P2;PMS_P1;PMS_P2;Temp;Humidity;BMP_temperature;BMP_pressure;BME280_temperature;BME280_humidity;BME280_pressure;Samples;Min_cycle;Max_cycle;Signal;HPM_P1;HPM_P2
2020/12/06 00:00:16;;;;;;;30.67;19.35;;;;;;;3.58;100.00;99460.06;5226675;28;20032;-80
2020/12/06 00:02:46;;;;;;;33.15;18.08;;;;;;;3.45;100.00;99449.25;5225165;28;20166;-81
2020/12/06 00:05:17;;;;;;;29.27;17.40;;;;;;;3.60;100.00;99452.31;5225959;28;20917;-81
2020/12/06 00:07:47;;;;;;;26.50;17.63;;;;;;;3.62;100.00;99448.78;5228821;28;20077;-81
2020/12/06 00:10:17;;;;;;;27.33;17.27;;;;;;;3.55;100.00;99443.81;5229899;28;20017;-81
2020/12/06 00:12:48;;;;;;;28.42;17.70;;;;;;;3.51;100.00;99431.84;5244690;28;20585;-81
2020/12/06 00:15:18;;;;;;;29.67;18.13;;;;;;;3.46;100.00;99446.63;5243645;28;20035;-81
2020/12/06 00:17:48;;;;;;;30.70;18.75;;;;;;;3.44;100.00;99434.63;5246222;28;20031;-81
2020/12/06 00:20:18;;;;;;;28.15;18.13;;;;;;;3.48;100.00;99434.53;5246425;28;20021;-81
2020/12/06 00:22:49;;;;;;;32.10;19.13;;;;;;;3.27;100.00;99436.78;5244539;28;20036;-81
2020/12/06 00:25:19;;;;;;;31.65;18.52;;;;;;;3.18;100.00;99426.72;5245696;28;20568;-81
2020/12/06 00:27:49;;;;;;;33.67;20.00;;;;;;;3.07;100.00;99433.84;5224685;28;20140;-81
2020/12/06 00:30:20;;;;;;;35.63;19.92;;;;;;;3.10;100.00;99444.97;5229540;28;20091;-81
2020/12/06 00:32:50;;;;;;;32.95;20.27;;;;;;;3.17;100.00;99467.13;5234162;28;20059;-81
2020/12/06 00:35:20;;;;;;;30.52;19.08;;;;;;;3.32;100.00;99455.59;5225991;28;20031;-81
2020/12/06 00:37:51;;;;;;;29.85;18.02;;;;;;;3.47;100.00;99443.16;5226042;28;20652;-81
2020/12/06 00:40:21;;;;;;;30.77;16.98;;;;;;;3.31;100.00;99438.41;5228552;28;20032;-80
2020/12/06 00:42:51;;;;;;;27.83;17.45;;;;;;;3.25;100.00;99436.84;5246429;28;20642;-80
2020/12/06 00:45:21;;;;;;;29.75;17.83;;;;;;;3.30;100.00;99419.50;5244066;28;20075;-81
2020/12/06 00:47:52;;;;;;;26.48;15.90;;;;;;;3.24;100.00;99416.22;5272962;22;20044;-79
2020/12/06 00:50:22;;;;;;;26.15;16.30;;;;;;;3.40;100.00;99412.38;5265039;28;20045;-79
2020/12/06 00:52:52;;;;;;;24.33;15.52;;;;;;;3.46;100.00;99409.63;5248430;28;20024;-78
2020/12/06 00:55:23;;;;;;;25.70;15.75;;;;;;;3.24;100.00;99408.47;5250802;28;20031;-79
2020/12/06 00:57:53;;;;;;;25.70;16.15;;;;;;;3.27;100.00;99398.06;5256137;28;20031;-78
2020/12/06 01:00:23;;;;;;;26.13;15.43;;;;;;;3.22;100.00;99405.09;5266287;28;20033;-78
2020/12/06 01:02:54;;;;;;;28.38;16.35;;;;;;;3.15;100.00;99408.69;5261655;28;20024;-78
2020/12/06 01:05:24;;;;;;;29.38;16.45;;;;;;;3.07;100.00;99413.22;5267152;28;20036;-78
2020/12/06 01:07:54;;;;;;;25.30;16.38;;;;;;;3.14;100.00;99407.84;5264132;28;20107;-78
2020/12/06 01:10:25;;;;;;;29.40;17.08;;;;;;;3.17;100.00;99402.63;5264915;28;20028;-78
2020/12/06 01:12:55;;;;;;;27.58;17.05;;;;;;;3.32;100.00;99403.97;5265751;28;20016;-78
2020/12/06 01:15:26;;;;;;;28.65;17.50;;;;;;;3.39;100.00;99402.94;5257237;28;20456;-79
2020/12/06 01:17:56;;;;;;;27.65;17.25;;;;;;;3.38;100.00;99411.56;5259296;28;20028;-79
2020/12/06 01:20:26;;;;;;;30.13;17.85;;;;;;;3.60;100.00;99404.06;5266616;28;20032;-77
2020/12/06 01:22:57;;;;;;;32.53;18.83;;;;;;;3.65;100.00;99394.44;5254424;28;20043;-79
2020/12/06 01:25:27;;;;;;;30.23;18.48;;;;;;;3.64;100.00;99392.75;5262617;28;20024;-78
2020/12/06 01:27:58;;;;;;;30.50;18.65;;;;;;;3.67;100.00;99392.69;5267017;28;20028;-78
2020/12/06 01:30:28;;;;;;;32.50;19.23;;;;;;;3.76;100.00;99395.00;5267327;28;20024;-78
2020/12/06 01:32:58;;;;;;;33.53;19.42;;;;;;;3.79;100.00;99402.66;5266634;28;20066;-78
2020/12/06 01:35:28;;;;;;;30.67;18.20;;;;;;;3.64;100.00;99418.56;5272810;28;20087;-78
2020/12/06 01:38:00;;;;;;;31.92;19.00;;;;;;;3.60;100.00;99426.47;5268748;28;20107;-77
2020/12/06 01:40:30;;;;;;;31.60;18.73;;;;;;;3.54;100.00;99418.03;5268644;28;20016;-78
2020/12/06 01:43:00;;;;;;;32.17;19.00;;;;;;;3.63;100.00;99424.63;5253088;28;20024;-77
2020/12/06 01:45:31;;;;;;;32.88;19.35;;;;;;;3.65;100.00;99433.19;5264033;28;20081;-77
2020/12/06 01:48:03;;;;;;;33.97;19.80;;;;;;;3.55;100.00;99432.63;5262687;28;20114;-77
2020/12/06 01:50:37;;;;;;;32.08;18.77;;;;;;;3.70;100.00;99444.28;5258818;28;20084;-79
2020/12/06 01:53:08;;;;;;;33.38;20.17;;;;;;;3.76;100.00;99454.44;5274517;28;20016;-78
2020/12/06 01:55:39;;;;;;;33.92;19.98;;;;;;;3.53;100.00;99453.31;5273189;28;20042;-78
2020/12/06 01:58:10;;;;;;;34.45;20.67;;;;;;;3.41;100.00;99437.31;5276118;28;20020;-79
2020/12/06 02:00:40;;;;;;;37.05;22.00;;;;;;;3.28;100.00;99430.75;5275157;28;20055;-77
2020/12/06 02:03:10;;;;;;;35.92;21.30;;;;;;;3.24;100.00;99424.81;5265011;28;20024;-77
2020/12/06 02:05:41;;;;;;;35.15;21.27;;;;;;;3.25;100.00;99417.91;5266790;28;20081;-77
2020/12/06 02:08:12;;;;;;;37.15;21.45;;;;;;;3.33;100.00;99413.44;5274561;28;20497;-78
2020/12/06 02:10:42;;;;;;;36.78;22.02;;;;;;;3.29;100.00;99401.47;5274403;28;20423;-77
2020/12/06 02:13:13;;;;;;;35.97;20.50;;;;;;;3.34;100.00;99389.31;5269624;28;20035;-78
2020/12/06 02:15:43;;;;;;;35.67;21.48;;;;;;;3.36;100.00;99382.38;5269564;28;20031;-77
2020/12/06 02:18:14;;;;;;;35.47;21.45;;;;;;;3.37;100.00;99363.41;5268713;28;20056;-78
2020/12/06 02:20:44;;;;;;;31.90;19.85;;;;;;;3.39;100.00;99359.03;5266739;28;20099;-77
2020/12/06 02:23:15;;;;;;;34.05;21.63;;;;;;;3.30;100.00;99346.38;5268783;28;20549;-77
2020/12/06 02:25:45;;;;;;;39.85;21.98;;;;;;;3.39;100.00;99353.88;5269996;28;20028;-77
2020/12/06 02:28:15;;;;;;;35.72;21.15;;;;;;;3.27;100.00;99378.28;5266192;28;20059;-78
2020/12/06 02:30:46;;;;;;;36.55;21.95;;;;;;;3.31;100.00;99360.97;5273189;28;20024;-78
2020/12/06 02:33:16;;;;;;;34.17;20.52;;;;;;;3.26;100.00;99386.91;5265632;28;20496;-77
2020/12/06 02:35:46;;;;;;;35.58;21.60;;;;;;;3.31;100.00;99391.94;5265354;28;20024;-77
2020/12/06 02:38:17;;;;;;;37.10;21.45;;;;;;;3.41;100.00;99406.31;5266107;28;20422;-77
2020/12/06 02:40:47;;;;;;;35.33;21.73;;;;;;;3.54;100.00;99403.38;5266230;28;20069;-77
2020/12/06 02:43:17;;;;;;;35.15;21.08;;;;;;;3.48;100.00;99418.16;5265806;28;20497;-77
2020/12/06 02:45:47;;;;;;;38.00;21.98;;;;;;;3.50;100.00;99406.09;5265834;28;20027;-77
2020/12/06 02:48:18;;;;;;;34.42;20.60;;;;;;;3.52;100.00;99406.91;5265869;28;20043;-77
2020/12/06 02:50:48;;;;;;;36.70;20.67;;;;;;;3.54;100.00;99390.47;5265387;28;20028;-77
2020/12/06 02:53:18;;;;;;;34.75;21.10;;;;;;;3.63;100.00;99377.31;5265407;28;20020;-77
2020/12/06 02:55:48;;;;;;;33.67;20.05;;;;;;;3.61;100.00;99369.59;5265164;28;20481;-77
2020/12/06 02:58:19;;;;;;;38.40;21.45;;;;;;;3.54;100.00;99376.72;5265907;28;20241;-77
2020/12/06 03:00:49;;;;;;;36.13;21.55;;;;;;;3.49;100.00;99381.13;5264050;28;20133;-77
2020/12/06 03:03:20;;;;;;;40.13;21.92;;;;;;;3.47;100.00;99381.19;5263206;28;20039;-77
2020/12/06 03:05:50;;;;;;;37.38;21.98;;;;;;;3.54;100.00;99366.38;5264976;28;20416;-77
2020/12/06 03:08:20;;;;;;;34.78;20.70;;;;;;;3.53;100.00;99373.28;5265065;28;20024;-77
2020/12/06 03:10:51;;;;;;;34.78;21.02;;;;;;;3.63;100.00;99356.66;5262936;28;20069;-77
2020/12/06 03:13:21;;;;;;;36.30;20.42;;;;;;;3.75;100.00;99335.66;5264763;28;20029;-77
2020/12/06 03:15:51;;;;;;;36.63;20.92;;;;;;;3.60;100.00;99334.31;5264908;28;20034;-77
2020/12/06 03:18:21;;;;;;;34.90;20.52;;;;;;;3.72;100.00;99341.75;5265007;28;20103;-77
2020/12/06 03:20:52;;;;;;;35.65;21.55;;;;;;;3.74;100.00;99329.63;5263963;28;20020;-77
2020/12/06 03:23:22;;;;;;;36.20;21.33;;;;;;;3.76;100.00;99335.59;5265138;28;20032;-77
2020/12/06 03:25:52;;;;;;;36.40;21.55;;;;;;;3.69;100.00;99335.81;5266016;28;20027;-77
2020/12/06 03:28:23;;;;;;;35.38;21.13;;;;;;;3.76;100.00;99332.19;5265064;28;20024;-77
2020/12/06 03:30:53;;;;;;;39.70;22.80;;;;;;;3.81;100.00;99319.97;5265562;28;20077;-77
2020/12/06 03:33:23;;;;;;;36.15;21.65;;;;;;;3.80;100.00;99308.78;5263566;28;20084;-77
2020/12/06 03:35:53;;;;;;;40.03;22.70;;;;;;;3.76;100.00;99302.00;5265493;28;20024;-77
2020/12/06 03:38:24;;;;;;;37.33;21.60;;;;;;;3.55;100.00;99306.94;5265995;28;20028;-77
2020/12/06 03:40:54;;;;;;;40.25;22.25;;;;;;;3.68;100.00;99300.53;5265489;28;20053;-77
2020/12/06 03:43:24;;;;;;;38.33;22.58;;;;;;;3.66;100.00;99295.44;5264857;28;20031;-77
2020/12/06 03:45:55;;;;;;;38.15;21.85;;;;;;;3.55;100.00;99285.44;5265176;28;20110;-77
2020/12/06 03:48:25;;;;;;;40.08;22.20;;;;;;;3.49;100.00;99283.00;5263770;28;20050;-77
2020/12/06 03:50:55;;;;;;;39.75;23.30;;;;;;;3.57;100.00;99288.81;5264582;28;20020;-77
2020/12/06 03:53:26;;;;;;;37.97;22.27;;;;;;;3.59;100.00;99286.16;5264754;28;20020;-77
2020/12/06 03:55:56;;;;;;;39.90;22.88;;;;;;;3.51;100.00;99279.50;5265213;28;20031;-77
2020/12/06 03:58:26;;;;;;;38.05;21.40;;;;;;;3.60;100.00;99280.09;5265247;28;20043;-77
2020/12/06 04:00:56;;;;;;;36.50;22.27;;;;;;;3.49;100.00;99285.59;5262782;28;20077;-77
2020/12/06 04:03:27;;;;;;;38.72;22.35;;;;;;;3.49;100.00;99290.75;5263261;28;20070;-77
2020/12/06 04:05:57;;;;;;;37.63;22.50;;;;;;;3.47;100.00;99293.41;5264821;28;20405;-77
2020/12/06 04:08:27;;;;;;;33.47;21.80;;;;;;;3.47;100.00;99303.72;5265085;28;20031;-77
2020/12/06 04:10:57;;;;;;;38.70;22.25;;;;;;;3.47;100.00;99313.19;5263744;28;20615;-77
2020/12/06 04:13:28;;;;;;;37.80;22.90;;;;;;;3.47;100.00;99320.94;5264908;28;20031;-77
2020/12/06 04:15:58;;;;;;;42.15;23.65;;;;;;;3.35;100.00;99321.28;5265285;28;20473;-77
2020/12/06 04:18:29;;;;;;;38.70;23.73;;;;;;;3.27;100.00;99318.91;5262491;28;20023;-77
2020/12/06 04:20:59;;;;;;;39.35;23.50;;;;;;;3.32;100.00;99335.13;5262686;28;20129;-77
2020/12/06 04:23:29;;;;;;;38.28;23.48;;;;;;;3.47;100.00;99344.19;5264753;28;20028;-77
2020/12/06 04:25:59;;;;;;;40.85;23.05;;;;;;;3.52;100.00;99338.00;5265053;28;20028;-77
2020/12/06 04:28:30;;;;;;;37.30;23.23;;;;;;;3.83;100.00;99334.56;5264976;28;20035;-77
2020/12/06 04:31:00;;;;;;;38.53;22.00;;;;;;;3.52;100.00;99332.00;5264987;28;20500;-77
2020/12/06 04:33:30;;;;;;;37.85;23.08;;;;;;;3.73;100.00;99321.91;5264851;28;20039;-77
2020/12/06 04:36:01;;;;;;;37.22;22.13;;;;;;;3.77;100.00;99316.63;5265979;28;20157;-77
2020/12/06 04:38:31;;;;;;;35.58;22.05;;;;;;;3.71;100.00;99303.03;5265571;28;20154;-77
2020/12/06 04:41:01;;;;;;;40.58;22.73;;;;;;;3.64;100.00;99312.69;5254838;28;20025;-77
2020/12/06 04:43:32;;;;;;;38.05;23.02;;;;;;;3.52;100.00;99324.28;5244002;28;20507;-77
2020/12/06 04:46:02;;;;;;;38.00;23.13;;;;;;;3.54;100.00;99320.72;5243774;28;20031;-77
2020/12/06 04:48:38;;;;;;;40.25;23.13;;;;;;;3.57;100.00;99310.31;5253700;28;20036;-77
2020/12/06 04:51:13;;;;;;;40.80;23.85;;;;;;;3.66;100.00;99289.41;5261748;28;20035;-77
2020/12/06 04:53:52;;;;;;;37.58;23.70;;;;;;;3.45;100.00;99310.69;5262691;28;20533;-77
2020/12/06 04:56:23;;;;;;;39.63;23.35;;;;;;;3.63;100.00;99316.16;5264658;28;20032;-77
2020/12/06 04:58:53;;;;;;;41.60;23.80;;;;;;;3.62;100.00;99309.31;5264037;28;20024;-77
2020/12/06 05:01:37;;;;;;;40.90;23.88;;;;;;;3.76;100.00;99308.94;5264601;28;20024;-77
2020/12/06 05:04:13;;;;;;;40.92;23.88;;;;;;;3.55;100.00;99306.09;5263968;28;20035;-77
2020/12/06 05:06:44;;;;;;;40.55;24.02;;;;;;;3.72;100.00;99299.56;5264595;28;20028;-77
2020/12/06 05:09:15;;;;;;;43.38;24.63;;;;;;;3.73;100.00;99284.03;5263512;28;20036;-77
2020/12/06 05:11:46;;;;;;;44.47;25.15;;;;;;;3.65;100.00;99288.53;5248830;28;20154;-77
2020/12/06 05:14:16;;;;;;;40.92;24.67;;;;;;;3.53;100.00;99276.91;5242607;28;20107;-77
2020/12/06 05:16:48;;;;;;;44.03;25.02;;;;;;;3.63;100.00;99259.34;5243317;28;20024;-77
2020/12/06 05:19:23;;;;;;;42.05;24.90;;;;;;;3.47;100.00;99264.13;5259633;28;20546;-77
2020/12/06 05:21:54;;;;;;;45.20;25.58;;;;;;;3.57;100.00;99260.41;5262822;28;20076;-77
2020/12/06 05:24:24;;;;;;;39.38;23.95;;;;;;;3.41;100.00;99262.59;5263863;28;20507;-77
2020/12/06 05:26:54;;;;;;;44.17;25.90;;;;;;;3.44;100.00;99266.81;5263982;28;20027;-77
2020/12/06 05:29:25;;;;;;;43.13;24.40;;;;;;;3.48;100.00;99271.00;5263153;28;20493;-77
2020/12/06 05:31:59;;;;;;;45.60;25.67;;;;;;;3.39;100.00;99263.53;5264536;28;20028;-77
2020/12/06 05:34:30;;;;;;;44.25;25.08;;;;;;;3.40;100.00;99271.22;5260734;28;20066;-77
2020/12/06 05:37:07;;;;;;;47.85;27.55;;;;;;;3.22;100.00;99281.22;5263764;28;20582;-77
2020/12/06 05:39:37;;;;;;;44.83;26.05;;;;;;;3.31;100.00;99299.00;5267736;28;20439;-77
2020/12/06 05:42:08;;;;;;;44.13;25.90;;;;;;;3.26;100.00;99308.63;5268413;28;20036;-77
2020/12/06 05:44:40;;;;;;;41.35;25.25;;;;;;;3.34;100.00;99304.13;5269085;28;20024;-76
2020/12/06 05:47:14;;;;;;;43.47;25.58;;;;;;;3.44;100.00;99296.06;5269077;28;20427;-76
2020/12/06 05:49:44;;;;;;;42.85;24.73;;;;;;;3.53;100.00;99302.72;5267074;28;20031;-76
2020/12/06 05:52:18;;;;;;;42.10;24.95;;;;;;;3.42;100.00;99289.25;5267604;28;20024;-77
2020/12/06 05:54:48;;;;;;;41.22;25.15;;;;;;;3.36;100.00;99269.59;5268047;28;20676;-77
2020/12/06 05:57:19;;;;;;;45.17;25.63;;;;;;;3.33;100.00;99263.69;5266432;28;20028;-77
2020/12/06 05:59:51;;;;;;;40.78;24.60;;;;;;;3.39;100.00;99279.00;5267626;28;20027;-77
2020/12/06 06:02:23;;;;;;;47.25;26.08;;;;;;;3.30;100.00;99297.31;5268165;28;20031;-77
2020/12/06 06:05:03;;;;;;;42.83;24.92;;;;;;;3.46;100.00;99289.13;5265330;28;20392;-77
2020/12/06 06:07:35;;;;;;;41.67;24.88;;;;;;;3.43;100.00;99291.81;5266644;28;20547;-76
2020/12/06 06:10:06;;;;;;;42.55;25.65;;;;;;;3.65;100.00;99293.72;5266044;28;20474;-77
2020/12/06 06:12:44;;;;;;;44.78;26.55;;;;;;;3.24;100.00;99290.63;5246601;28;20028;-76
2020/12/06 06:15:14;;;;;;;45.88;26.88;;;;;;;3.27;100.00;99295.69;5245628;28;20021;-76
2020/12/06 06:17:48;;;;;;;46.03;26.85;;;;;;;3.24;100.00;99287.16;5250027;28;20035;-76
2020/12/06 06:20:18;;;;;;;47.22;27.40;;;;;;;3.31;100.00;99280.94;5266913;28;20474;-76
2020/12/06 06:22:50;;;;;;;46.03;26.48;;;;;;;3.51;100.00;99274.34;5265604;28;20051;-77
2020/12/06 06:25:21;;;;;;;43.92;25.40;;;;;;;3.54;100.00;99276.00;5266975;28;20031;-76
2020/12/06 06:27:51;;;;;;;47.05;26.17;;;;;;;3.55;100.00;99255.28;5266242;28;20028;-77
2020/12/06 06:30:22;;;;;;;46.30;25.50;;;;;;;3.37;100.00;99268.72;5265660;28;20040;-77
2020/12/06 06:32:52;;;;;;;43.15;24.77;;;;;;;3.37;100.00;99275.63;5265702;28;20064;-77
2020/12/06 06:35:24;;;;;;;46.15;26.00;;;;;;;3.45;100.00;99273.66;5265069;28;20063;-77
2020/12/06 06:37:55;;;;;;;45.53;25.88;;;;;;;3.41;100.00;99278.09;5264948;28;20028;-77
2020/12/06 06:40:28;;;;;;;41.97;25.10;;;;;;;3.45;100.00;99281.41;5261896;28;20034;-77
2020/12/06 06:43:04;;;;;;;44.05;26.60;;;;;;;3.28;100.00;99288.78;5267178;28;20032;-76
2020/12/06 06:45:44;;;;;;;43.05;25.70;;;;;;;3.48;100.00;99274.44;5267492;28;20059;-76
2020/12/06 06:48:16;;;;;;;44.63;26.08;;;;;;;3.35;100.00;99280.00;5288324;22;20032;-81
2020/12/06 06:50:47;;;;;;;42.67;25.90;;;;;;;3.43;100.00;99278.03;5264092;28;20376;-81
2020/12/06 06:53:18;;;;;;;46.05;27.35;;;;;;;3.24;100.00;99262.22;5254394;28;20020;-81
2020/12/06 06:55:52;;;;;;;44.03;27.13;;;;;;;3.13;100.00;99265.94;5263723;28;20035;-80
2020/12/06 06:58:26;;;;;;;51.33;28.38;;;;;;;3.00;100.00;99274.94;5238341;28;20032;-80
2020/12/06 07:01:22;;;;;;;51.53;28.63;;;;;;;2.90;100.00;99264.00;5243362;28;20082;-80
2020/12/06 07:03:54;;;;;;;52.10;28.08;;;;;;;3.00;100.00;99262.03;5243790;28;20017;-80
2020/12/06 07:06:54;;;;;;;51.13;29.95;;;;;;;2.93;100.00;99256.19;5243560;28;20107;-80
2020/12/06 07:09:26;;;;;;;50.03;28.00;;;;;;;2.94;100.00;99238.94;5228549;28;20398;-81
2020/12/06 07:11:59;;;;;;;50.28;28.73;;;;;;;2.91;100.00;99231.31;5245720;28;20024;-80
2020/12/06 07:14:29;;;;;;;53.17;28.88;;;;;;;3.10;100.00;99233.34;5243135;28;20096;-80
2020/12/06 07:16:59;;;;;;;50.47;28.25;;;;;;;3.09;100.00;99239.41;5228952;28;20103;-80
2020/12/06 07:19:30;;;;;;;48.53;27.52;;;;;;;3.28;100.00;99239.72;5233420;28;20031;-80
2020/12/06 07:22:01;;;;;;;46.22;25.45;;;;;;;3.33;100.00;99253.38;5235678;28;20049;-80
2020/12/06 07:24:32;;;;;;;46.38;26.67;;;;;;;3.26;100.00;99263.03;5230952;28;20394;-80
2020/12/06 07:27:02;;;;;;;44.10;26.40;;;;;;;3.43;100.00;99278.03;5234304;28;20037;-80
2020/12/06 07:29:33;;;;;;;44.92;26.48;;;;;;;3.36;100.00;99274.78;5233019;28;20025;-80
2020/12/06 07:32:03;;;;;;;45.65;26.83;;;;;;;3.41;100.00;99261.75;5235564;28;20153;-80
2020/12/06 07:34:36;;;;;;;44.65;25.35;;;;;;;3.55;100.00;99246.72;5234622;28;20017;-81
2020/12/06 07:37:08;;;;;;;46.00;25.95;;;;;;;3.50;100.00;99251.16;5236564;28;20063;-82
2020/12/06 07:39:48;;;;;;;44.03;26.77;;;;;;;3.41;100.00;99262.59;5234801;28;20021;-81
2020/12/06 07:42:27;;;;;;;47.72;27.20;;;;;;;3.46;100.00;99250.41;5235896;28;20111;-81
2020/12/06 07:44:59;;;;;;;43.95;25.20;;;;;;;3.47;100.00;99235.75;5233674;28;20033;-81
2020/12/06 07:47:29;;;;;;;45.08;26.05;;;;;;;3.63;100.00;99233.50;5233701;28;20020;-81
2020/12/06 07:50:00;;;;;;;41.90;25.23;;;;;;;3.63;100.00;99235.25;5232208;28;20428;-81
2020/12/06 07:52:37;;;;;;;46.38;26.52;;;;;;;3.52;100.00;99228.72;5227694;28;20689;-80
2020/12/06 07:55:10;;;;;;;45.67;26.08;;;;;;;3.76;100.00;99219.34;5246161;28;20035;-81
2020/12/06 07:57:40;;;;;;;43.00;25.58;;;;;;;3.65;100.00;99226.56;5236898;28;20044;-81
2020/12/06 08:00:12;;;;;;;46.67;26.30;;;;;;;3.54;100.00;99225.19;5232022;28;20028;-82
2020/12/06 08:02:57;;;;;;;45.05;26.02;;;;;;;3.46;100.00;99214.25;5229322;28;20044;-81
2020/12/06 08:05:36;;;;;;;45.20;27.23;;;;;;;3.48;100.00;99220.22;5247589;28;20062;-81
2020/12/06 08:08:13;;;;;;;45.33;26.13;;;;;;;3.51;100.00;99221.88;5252221;28;20043;-81
2020/12/06 08:10:53;;;;;;;44.42;26.42;;;;;;;3.43;100.00;99231.56;5250209;28;20482;-81
2020/12/06 08:13:24;;;;;;;41.63;25.42;;;;;;;3.62;100.00;99234.41;5248132;28;20119;-81
2020/12/06 08:16:05;;;;;;;47.10;26.63;;;;;;;3.49;100.00;99237.41;5243679;28;20074;-82
2020/12/06 08:18:35;;;;;;;46.35;26.77;;;;;;;3.33;100.00;99237.88;5235310;28;20021;-82
2020/12/06 08:21:05;;;;;;;45.20;26.70;;;;;;;3.45;100.00;99237.53;5239535;28;20027;-82
2020/12/06 08:23:37;;;;;;;44.40;25.48;;;;;;;3.69;100.00;99212.69;5250365;28;20035;-82
2020/12/06 08:26:09;;;;;;;39.70;24.80;;;;;;;3.61;100.00;99214.63;5255766;28;20024;-81
2020/12/06 08:28:39;;;;;;;41.95;25.10;;;;;;;3.69;100.00;99217.84;5244724;28;20020;-82
2020/12/06 08:31:20;;;;;;;44.63;26.70;;;;;;;3.29;100.00;99234.53;5239174;28;20517;-82
2020/12/06 08:33:50;;;;;;;47.60;27.38;;;;;;;3.43;100.00;99218.66;5249401;28;20063;-82
2020/12/06 08:36:24;;;;;;;48.63;27.60;;;;;;;3.60;100.00;99215.53;5259227;28;20025;-82
2020/12/06 08:38:54;;;;;;;48.20;27.50;;;;;;;3.41;100.00;99223.00;5260266;28;20055;-82
2020/12/06 08:41:25;;;;;;;51.70;28.55;;;;;;;3.28;100.00;99208.75;5261170;28;20020;-81
2020/12/06 08:44:03;;;;;;;51.53;29.83;;;;;;;3.18;100.00;99215.09;5259620;28;20057;-82
2020/12/06 08:46:34;;;;;;;49.20;28.20;;;;;;;3.33;100.00;99201.75;5260436;28;20028;-82
2020/12/06 08:49:16;;;;;;;51.42;28.73;;;;;;;3.37;100.00;99191.28;5248016;28;20029;-81
2020/12/06 08:51:51;;;;;;;48.45;27.50;;;;;;;3.42;100.00;99202.34;5242973;28;20088;-82
2020/12/06 08:54:32;;;;;;;46.22;26.67;;;;;;;3.66;100.00;99197.28;5249507;28;20024;-82
2020/12/06 08:57:14;;;;;;;46.90;28.33;;;;;;;3.48;100.00;99201.28;5250959;28;20037;-82
2020/12/06 08:59:45;;;;;;;49.20;28.50;;;;;;;3.36;100.00;99191.34;5250834;28;20028;-82
2020/12/06 09:02:23;;;;;;;46.47;26.73;;;;;;;3.56;100.00;99189.00;5249712;28;20036;-81
2020/12/06 09:04:53;;;;;;;46.58;27.10;;;;;;;3.54;100.00;99183.88;5257903;28;20028;-82
2020/12/06 09:07:24;;;;;;;48.22;27.23;;;;;;;3.71;100.00;99171.28;5250602;28;20025;-82
2020/12/06 09:09:54;;;;;;;49.33;28.20;;;;;;;3.50;100.00;99179.69;5255631;28;20016;-82
2020/12/06 09:12:24;;;;;;;45.15;26.15;;;;;;;3.49;100.00;99171.97;5256550;28;20021;-82
2020/12/06 09:14:54;;;;;;;49.88;28.48;;;;;;;3.45;100.00;99183.31;5256566;28;20089;-82
2020/12/06 09:17:25;;;;;;;49.15;28.13;;;;;;;3.35;100.00;99200.78;5239570;28;20079;-81
2020/12/06 09:19:55;;;;;;;50.05;27.98;;;;;;;3.42;100.00;99214.38;5245783;28;20025;-81
2020/12/06 09:22:26;;;;;;;47.10;27.80;;;;;;;3.43;100.00;99216.06;5253594;28;20024;-81
2020/12/06 09:24:56;;;;;;;49.20;27.98;;;;;;;3.50;100.00;99207.28;5254797;28;20032;-82
2020/12/06 09:27:26;;;;;;;49.63;28.35;;;;;;;3.57;100.00;99190.69;5247855;28;20035;-82
2020/12/06 09:29:57;;;;;;;45.10;26.73;;;;;;;3.70;100.00;99193.72;5245585;28;20029;-81
2020/12/06 09:32:27;;;;;;;48.42;27.35;;;;;;;3.58;100.00;99198.41;5259625;28;20059;-82
2020/12/06 09:34:57;;;;;;;51.28;28.23;;;;;;;3.41;100.00;99192.03;5258847;28;20080;-82
2020/12/06 09:37:27;;;;;;;46.80;28.40;;;;;;;3.50;100.00;99194.38;5251766;28;20084;-82
2020/12/06 09:39:58;;;;;;;47.75;28.70;;;;;;;3.56;100.00;99183.84;5262244;28;20417;-82
2020/12/06 09:42:28;;;;;;;47.50;28.00;;;;;;;3.43;100.00;99185.09;5257831;28;20024;-82
2020/12/06 09:44:58;;;;;;;48.95;28.35;;;;;;;3.62;100.00;99180.16;5248534;28;20604;-82
2020/12/06 09:47:28;;;;;;;50.15;28.13;;;;;;;3.52;100.00;99190.00;5244869;28;20084;-82
2020/12/06 09:49:59;;;;;;;47.17;29.10;;;;;;;3.49;100.00;99179.72;5245895;28;20029;-82
2020/12/06 09:52:29;;;;;;;51.05;29.13;;;;;;;3.50;100.00;99173.72;5252802;28;20032;-81
2020/12/06 09:54:59;;;;;;;49.83;29.20;;;;;;;3.49;100.00;99167.69;5253342;28;20031;-82
2020/12/06 09:57:29;;;;;;;51.22;29.20;;;;;;;3.51;100.00;99170.22;5245287;28;20092;-82
2020/12/06 10:00:00;;;;;;;55.15;31.70;;;;;;;3.46;100.00;99170.38;5244851;28;20029;-81
2020/12/06 10:02:30;;;;;;;65.18;31.15;;;;;;;3.58;100.00;99171.72;5251229;28;20119;-81
2020/12/06 10:05:00;;;;;;;48.15;28.20;;;;;;;3.67;100.00;99183.47;5260427;28;20096;-81
2020/12/06 10:07:31;;;;;;;48.97;27.83;;;;;;;3.77;100.00;99192.63;5252647;28;20027;-82
2020/12/06 10:10:01;;;;;;;46.53;26.80;;;;;;;3.87;100.00;99191.47;5242442;28;20050;-81
2020/12/06 10:12:31;;;;;;;46.03;27.08;;;;;;;3.93;100.00;99185.25;5232177;28;20104;-83
2020/12/06 10:15:03;;;;;;;50.85;28.77;;;;;;;3.83;100.00;99179.53;5240717;28;20043;-81
2020/12/06 10:17:34;;;;;;;48.22;28.25;;;;;;;3.90;100.00;99188.78;5242470;28;20028;-81
2020/12/06 10:20:07;;;;;;;50.92;27.85;;;;;;;4.04;100.00;99190.91;5240805;28;20036;-82
2020/12/06 10:22:38;;;;;;;43.65;26.08;;;;;;;4.01;100.00;99189.28;5236579;28;20029;-82
2020/12/06 10:25:08;;;;;;;45.65;26.92;;;;;;;3.80;100.00;99189.13;5243746;28;20040;-82
2020/12/06 10:27:38;;;;;;;46.80;26.83;;;;;;;3.86;100.00;99176.84;5237156;28;20058;-82
2020/12/06 10:30:08;;;;;;;45.72;25.88;;;;;;;4.12;100.00;99176.84;5242556;28;20029;-81
2020/12/06 10:32:39;;;;;;;43.15;26.60;;;;;;;4.18;100.00;99171.50;5238955;28;20025;-81
2020/12/06 10:35:09;;;;;;;47.67;26.30;;;;;;;4.10;100.00;99168.31;5235952;28;20020;-82
2020/12/06 10:37:40;;;;;;;47.88;27.73;;;;;;;3.91;100.00;99164.63;5225406;28;20036;-81
2020/12/06 10:40:10;;;;;;;45.92;26.92;;;;;;;4.07;100.00;99158.06;5228408;28;20048;-81
2020/12/06 10:42:40;;;;;;;48.85;28.05;;;;;;;3.94;100.00;99154.19;5247399;28;20020;-81
2020/12/06 10:45:10;;;;;;;46.25;27.90;;;;;;;3.84;100.00;99139.88;5247740;28;20505;-81
2020/12/06 10:47:41;;;;;;;49.10;29.45;;;;;;;3.82;100.00;99136.47;5245144;28;20838;-81
2020/12/06 10:50:12;;;;;;;50.95;28.70;;;;;;;3.90;100.00;99129.34;5239992;28;20449;-81
2020/12/06 10:52:42;;;;;;;49.72;28.42;;;;;;;3.93;100.00;99131.81;5233537;28;20496;-81
2020/12/06 10:55:12;;;;;;;52.72;29.05;;;;;;;3.90;100.00;99129.34;5228257;28;20021;-82
2020/12/06 10:57:42;;;;;;;48.60;27.83;;;;;;;4.04;100.00;99132.34;5235514;28;20028;-82
2020/12/06 11:00:13;;;;;;;51.50;29.92;;;;;;;4.03;100.00;99127.22;5237159;28;20546;-81
2020/12/06 11:02:43;;;;;;;49.28;28.13;;;;;;;4.20;100.00;99122.31;5233105;28;20040;-82
2020/12/06 11:05:13;;;;;;;49.75;26.88;;;;;;;4.21;100.00;99109.38;5238326;28;20040;-81
2020/12/06 11:07:44;;;;;;;47.33;27.33;;;;;;;4.25;100.00;99105.78;5242398;28;20029;-81
2020/12/06 11:10:14;;;;;;;46.92;27.70;;;;;;;4.24;100.00;99109.25;5240179;28;20027;-81
2020/12/06 11:12:44;;;;;;;47.55;28.08;;;;;;;4.31;100.00;99102.97;5237642;28;20028;-81
2020/12/06 11:15:15;;;;;;;52.58;28.48;;;;;;;4.03;100.00;99107.41;5236638;28;20029;-81
2020/12/06 11:17:45;;;;;;;51.53;28.58;;;;;;;4.00;100.00;99117.84;5237398;28;20025;-81
2020/12/06 11:20:16;;;;;;;52.80;28.85;;;;;;;3.93;100.00;99123.25;5239917;28;20065;-81
2020/12/06 11:22:46;;;;;;;53.65;30.95;;;;;;;3.97;100.00;99125.66;5239324;28;20064;-82
2020/12/06 11:25:16;;;;;;;52.83;29.52;;;;;;;4.08;100.00;99113.25;5237801;28;20048;-81
2020/12/06 11:27:47;;;;;;;49.97;29.05;;;;;;;4.13;100.00;99108.75;5245015;28;20102;-81
2020/12/06 11:30:17;;;;;;;54.30;30.55;;;;;;;4.21;100.00;99113.69;5239920;28;20016;-81
2020/12/06 11:32:47;;;;;;;58.28;33.53;;;;;;;4.19;100.00;99111.16;5234212;28;20422;-81
2020/12/06 11:35:18;;;;;;;50.28;28.55;;;;;;;4.26;100.00;99107.47;5235492;28;20025;-82